Time;durP1;ratioP1;P1;durP2;ratioP2;P2;SDS_P1;SDS_P2;PMS_P1;PMS_P2;Temp;Humidity;BMP_temperature;BMP_pressure;BME280_temperature;BME280_humidity;BME280_pressure;Samples;Min_cycle;Max_cycle;Signal;HPM_P1;HPM_P2
2022/11/14 00:04:37;;;;;;;3.63;2.53;;;15.10;68.60;;;;;;10447794;28;20056;-68
2022/11/14 00:09:39;;;;;;;4.13;2.58;;;15.20;67.50;;;;;;10447433;28;20518;-69
2022/11/14 00:14:39;;;;;;;4.63;2.72;;;15.20;66.90;;;;;;10447246;28;20032;-67
2022/11/14 00:19:40;;;;;;;4.82;2.88;;;15.20;66.50;;;;;;10446731;28;20060;-68
2022/11/14 00:24:41;;;;;;;4.00;2.65;;;15.20;67.10;;;;;;10446609;28;20092;-67
2022/11/14 00:29:41;;;;;;;3.72;2.83;;;15.10;68.10;;;;;;10446551;28;20115;-68
2022/11/14 00:34:42;;;;;;;5.00;3.20;;;15.10;67.10;;;;;;10446370;28;20132;-68
2022/11/14 00:39:43;;;;;;;3.60;2.28;;;15.10;66.40;;;;;;10447556;28;20483;-68
2022/11/14 00:44:43;;;;;;;4.43;3.10;;;15.10;66.00;;;;;;10447734;28;20123;-67
2022/11/14 00:49:44;;;;;;;3.85;2.85;;;15.10;66.40;;;;;;10445906;28;20048;-68
2022/11/14 00:54:46;;;;;;;3.33;2.20;;;15.10;66.80;;;;;;10445607;28;20053;-68
2022/11/14 00:59:46;;;;;;;3.35;2.75;;;15.10;67.00;;;;;;10447349;28;20060;-66
2022/11/14 01:04:47;;;;;;;5.07;3.17;;;15.10;66.20;;;;;;10445289;28;20104;-67
2022/11/14 01:09:48;;;;;;;4.65;2.33;;;15.10;65.90;;;;;;10446422;28;20048;-67
2022/11/14 01:14:48;;;;;;;4.57;3.03;;;15.10;65.60;;;;;;10445100;28;20588;-68
2022/11/14 01:19:49;;;;;;;4.25;3.22;;;15.10;66.20;;;;;;10445000;28;20076;-67
2022/11/14 01:24:49;;;;;;;3.08;2.30;;;15.00;67.20;;;;;;10445227;28;20056;-68
2022/11/14 01:29:50;;;;;;;4.88;2.92;;;15.10;66.20;;;;;;10446563;28;20024;-67
2022/11/14 01:34:51;;;;;;;4.15;2.50;;;15.10;65.70;;;;;;10444694;28;20050;-67
2022/11/14 01:39:51;;;;;;;4.28;3.22;;;15.10;65.20;;;;;;10444956;28;20029;-67
2022/11/14 01:44:52;;;;;;;4.25;3.17;;;15.10;65.80;;;;;;10444628;28;20048;-68
2022/11/14 01:49:59;;;;;;;4.75;2.60;;;15.00;66.90;;;;;;10444504;28;20017;-68
2022/11/14 01:55:04;;;;;;;4.15;2.80;;;15.00;66.10;;;;;;10431999;28;20063;-67
2022/11/14 02:00:09;;;;;;;5.18;3.08;;;15.10;65.40;;;;;;10444135;28;20061;-67
2022/11/14 02:05:14;;;;;;;4.60;3.08;;;15.00;64.80;;;;;;10428039;28;20009;-67
2022/11/14 02:10:19;;;;;;;5.35;3.20;;;15.00;65.10;;;;;;10444201;28;20102;-67
2022/11/14 02:15:20;;;;;;;5.60;3.58;;;15.00;65.70;;;;;;10428746;28;20725;-67
2022/11/14 02:20:28;;;;;;;4.43;2.97;;;14.90;66.90;;;;;;10451538;28;20017;-67
2022/11/14 02:25:28;;;;;;;4.75;3.35;;;14.90;65.90;;;;;;10451822;28;20094;-66
2022/11/14 02:30:29;;;;;;;4.82;3.53;;;15.00;65.20;;;;;;10451612;28;20105;-64
2022/11/14 02:35:30;;;;;;;4.90;3.35;;;15.00;64.50;;;;;;10452494;28;20056;-65
2022/11/14 02:40:31;;;;;;;5.13;3.63;;;15.00;64.80;;;;;;10450960;28;20457;-65
2022/11/14 02:45:32;;;;;;;5.22;3.50;;;14.90;65.40;;;;;;10450301;28;20119;-65
2022/11/14 02:50:32;;;;;;;6.15;3.80;;;14.90;66.30;;;;;;10450897;28;20021;-65
2022/11/14 02:55:33;;;;;;;5.78;3.63;;;15.00;65.10;;;;;;10452129;28;20100;-65
2022/11/14 03:00:34;;;;;;;5.03;3.45;;;14.90;64.50;;;;;;10450418;28;20652;-65
2022/11/14 03:05:34;;;;;;;4.80;3.58;;;15.00;64.10;;;;;;10450301;28;20452;-65
2022/11/14 03:10:35;;;;;;;4.90;3.75;;;15.00;64.70;;;;;;10451195;28;20036;-64
2022/11/14 03:15:36;;;;;;;5.38;3.75;;;14.80;65.70;;;;;;10450272;28;20061;-65
2022/11/14 03:20:38;;;;;;;4.93;3.70;;;14.80;65.30;;;;;;10432745;28;20079;-66
2022/11/14 03:25:38;;;;;;;5.00;3.83;;;14.90;64.60;;;;;;10449371;28;20028;-68
2022/11/14 03:30:39;;;;;;;5.70;4.35;;;14.90;64.00;;;;;;10449323;28;20179;-67
2022/11/14 03:35:42;;;;;;;7.00;4.93;;;14.90;63.90;;;;;;10432143;28;20095;-66
2022/11/14 03:40:43;;;;;;;5.70;4.25;;;14.90;64.50;;;;;;10449088;28;20129;-67
2022/11/14 03:45:44;;;;;;;6.03;4.00;;;14.80;65.50;;;;;;10448686;28;20041;-68
2022/11/14 03:50:45;;;;;;;5.93;3.58;;;14.80;64.60;;;;;;10432095;28;20120;-68
2022/11/14 03:55:46;;;;;;;5.93;4.10;;;14.90;64.00;;;;;;10431813;28;20027;-67
2022/11/14 04:00:46;;;;;;;5.00;3.92;;;14.90;63.60;;;;;;10448821;28;20128;-67
2022/11/14 04:05:48;;;;;;;5.25;4.45;;;14.90;63.90;;;;;;10447935;28;20721;-67
2022/11/14 04:10:49;;;;;;;6.55;4.38;;;14.80;64.40;;;;;;10430674;28;20028;-67
2022/11/14 04:15:57;;;;;;;8.70;4.97;;;14.80;65.20;;;;;;10447323;28;20077;-68
2022/11/14 04:20:58;;;;;;;5.72;4.43;;;14.80;64.10;;;;;;10446811;28;20056;-67
2022/11/14 04:25:58;;;;;;;5.95;3.60;;;14.80;63.40;;;;;;10448033;28;20116;-67
2022/11/14 04:30:59;;;;;;;6.10;4.15;;;14.80;63.10;;;;;;10446860;28;20032;-67
2022/11/14 04:36:00;;;;;;;5.90;4.43;;;14.80;63.80;;;;;;10448008;28;20053;-67
2022/11/14 04:41:00;;;;;;;6.88;4.55;;;14.70;64.90;;;;;;10445712;28;20166;-67
2022/11/14 04:46:01;;;;;;;5.65;4.60;;;14.60;65.70;;;;;;10446217;28;20028;-68
2022/11/14 04:51:02;;;;;;;6.07;4.20;;;14.70;64.30;;;;;;10429597;28;20052;-68
2022/11/14 04:56:03;;;;;;;5.90;4.30;;;14.80;63.70;;;;;;10446054;28;20105;-67
2022/11/14 05:01:13;;;;;;;7.10;4.68;;;14.80;63.10;;;;;;10445261;28;20056;-67
2022/11/14 05:06:13;;;;;;;5.65;3.85;;;14.80;63.60;;;;;;10445921;28;20468;-67
2022/11/14 05:11:16;;;;;;;5.72;4.15;;;14.70;64.30;;;;;;10445030;28;20035;-67
2022/11/14 05:16:17;;;;;;;7.05;4.80;;;14.60;65.40;;;;;;10427745;28;20028;-67
2022/11/14 05:21:18;;;;;;;6.40;4.55;;;14.60;65.90;;;;;;10443957;28;20124;-67
2022/11/14 05:26:18;;;;;;;6.97;5.15;;;14.50;65.80;;;;;;10443086;28;20096;-64
2022/11/14 05:31:19;;;;;;;7.90;6.05;;;14.60;64.50;;;;;;10444468;28;20052;-66
2022/11/14 05:36:20;;;;;;;6.97;4.82;;;14.60;63.70;;;;;;10444770;28;20112;-67
2022/11/14 05:41:21;;;;;;;7.78;4.97;;;14.70;63.20;;;;;;10444396;28;20387;-66
2022/11/14 05:46:21;;;;;;;16.23;5.70;;;14.70;63.50;;;;;;10442020;28;20819;-64
2022/11/14 05:51:22;;;;;;;10.88;6.68;;;14.70;65.10;;;;;;10444808;28;20425;-64
2022/11/14 05:56:23;;;;;;;19.42;6.80;;;14.60;66.30;;;;;;10462873;28;20116;-62
2022/11/14 06:01:23;;;;;;;20.83;9.65;;;14.70;66.90;;;;;;10453360;28;20143;-63
2022/11/14 06:06:24;;;;;;;19.05;9.00;;;15.00;68.00;;;;;;10451542;28;20052;-62
2022/11/14 06:11:25;;;;;;;13.30;8.82;;;15.10;68.40;;;;;;10441466;28;20034;-62
2022/11/14 06:16:25;;;;;;;17.98;8.90;;;15.10;70.00;;;;;;10453324;28;20379;-61
2022/11/14 06:21:26;;;;;;;15.45;9.43;;;15.00;69.90;;;;;;10435208;28;20627;-62
2022/11/14 06:26:30;;;;;;;15.27;9.98;;;15.00;69.50;;;;;;10452112;28;20117;-62
2022/11/14 06:31:30;;;;;;;26.15;10.90;;;15.00;69.50;;;;;;10445403;28;20029;-62
2022/11/14 06:36:31;;;;;;;18.73;11.45;;;15.00;69.10;;;;;;10452283;28;20538;-61
2022/11/14 06:41:32;;;;;;;26.13;11.73;;;15.00;69.50;;;;;;10452181;28;20108;-62
2022/11/14 06:46:32;;;;;;;18.85;10.48;;;14.90;69.40;;;;;;10450486;28;20035;-62
2022/11/14 06:51:33;;;;;;;22.25;10.35;;;14.80;69.90;;;;;;10447643;28;20029;-62
2022/11/14 06:56:34;;;;;;;21.92;10.82;;;14.70;70.10;;;;;;10449094;28;20056;-61
2022/11/14 07:01:34;;;;;;;27.73;11.25;;;14.70;69.90;;;;;;10454833;28;20033;-65
2022/11/14 07:06:35;;;;;;;22.10;11.98;;;14.70;69.80;;;;;;10449459;28;20032;-63
2022/11/14 07:11:36;;;;;;;18.00;10.85;;;14.70;69.90;;;;;;10450097;28;20124;-63
2022/11/14 07:16:37;;;;;;;14.48;10.23;;;14.60;69.80;;;;;;10447809;28;20024;-63
2022/11/14 07:21:38;;;;;;;17.27;10.05;;;14.60;70.00;;;;;;10448388;28;20049;-64
2022/11/14 07:26:39;;;;;;;17.45;10.05;;;14.50;70.00;;;;;;10447508;28;20021;-64
2022/11/14 07:31:40;;;;;;;14.40;10.48;;;14.50;70.00;;;;;;10447428;28;20112;-63
2022/11/14 07:36:40;;;;;;;15.88;11.35;;;14.40;69.80;;;;;;10449746;28;20088;-63
2022/11/14 07:41:41;;;;;;;12.75;9.10;;;14.50;69.40;;;;;;10449407;28;20116;-64
2022/11/14 07:46:42;;;;;;;19.40;9.90;;;14.40;69.40;;;;;;10448769;28;20017;-63
2022/11/14 07:51:42;;;;;;;18.73;10.68;;;14.50;70.20;;;;;;10447854;28;20047;-66
2022/11/14 07:56:43;;;;;;;14.35;9.65;;;14.50;70.10;;;;;;10446999;28;20023;-63
2022/11/14 08:01:44;;;;;;;14.50;9.20;;;14.50;69.60;;;;;;10445035;28;20517;-65
2022/11/14 08:06:44;;;;;;;14.88;9.98;;;14.50;69.70;;;;;;10449088;28;20152;-64
2022/11/14 08:11:48;;;;;;;16.70;10.00;;;14.40;69.80;;;;;;10447656;28;20634;-64
2022/11/14 08:16:49;;;;;;;16.20;9.07;;;14.40;69.70;;;;;;10430392;28;20025;-64
2022/11/14 08:21:50;;;;;;;19.25;10.32;;;14.40;69.90;;;;;;10447484;28;20049;-64
2022/11/14 08:26:50;;;;;;;14.32;9.82;;;14.40;70.00;;;;;;10446580;28;20112;-64
2022/11/14 08:31:51;;;;;;;14.90;9.40;;;14.40;70.00;;;;;;10448095;28;20025;-65
2022/11/14 08:36:52;;;;;;;11.70;8.30;;;14.50;70.20;;;;;;10446589;28;20775;-65
2022/11/14 08:41:52;;;;;;;17.08;8.25;;;14.40;70.00;;;;;;10429753;28;20053;-65
2022/11/14 08:46:53;;;;;;;12.52;7.45;;;14.40;70.10;;;;;;10446334;28;20108;-65
2022/11/14 08:51:54;;;;;;;10.68;7.68;;;14.40;70.80;;;;;;10447495;28;20031;-65
2022/11/14 08:56:54;;;;;;;9.73;6.88;;;14.40;70.30;;;;;;10447211;28;20104;-65
2022/11/14 09:01:55;;;;;;;9.10;6.93;;;14.40;70.10;;;;;;10444940;28;20120;-64
2022/11/14 09:06:57;;;;;;;12.75;7.20;;;14.40;70.10;;;;;;10445202;28;20043;-64
2022/11/14 09:11:58;;;;;;;11.65;7.22;;;14.40;70.10;;;;;;10445788;28;20025;-62
2022/11/14 09:16:58;;;;;;;9.70;7.18;;;14.50;70.10;;;;;;10428446;28;20655;-65
2022/11/14 09:21:59;;;;;;;9.25;6.68;;;14.50;70.10;;;;;;10444757;28;20113;-67
2022/11/14 09:27:00;;;;;;;17.35;6.63;;;14.50;70.00;;;;;;10446250;28;20114;-66
2022/11/14 09:32:00;;;;;;;14.32;7.63;;;14.50;70.30;;;;;;10445128;28;20071;-70
2022/11/14 09:37:01;;;;;;;14.52;6.10;;;14.60;70.60;;;;;;10443770;28;20488;-68
2022/11/14 09:42:27;;;;;;;14.32;6.30;;;14.60;70.30;;;;;;10445696;28;20037;-70
2022/11/14 09:47:41;;;;;;;12.93;7.45;;;14.60;70.10;;;;;;10432615;28;20033;-70
2022/11/14 09:53:00;;;;;;;11.82;6.38;;;14.60;70.00;;;;;;10444817;28;20029;-71
2022/11/14 09:58:02;;;;;;;9.30;6.32;;;14.60;70.00;;;;;;10444439;28;20032;-69
2022/11/14 10:03:41;;;;;;;11.48;6.50;;;14.60;70.00;;;;;;10444207;28;20028;-68
2022/11/14 10:09:22;;;;;;;10.85;5.65;;;14.70;70.10;;;;;;10427133;28;20032;-68
2022/11/14 10:14:48;;;;;;;8.50;5.65;;;14.70;70.20;;;;;;10443621;28;20021;-67
2022/11/14 10:20:11;;;;;;;9.32;5.70;;;14.70;70.20;;;;;;10444897;28;20029;-67
2022/11/14 10:25:53;;;;;;;10.43;6.13;;;14.70;70.30;;;;;;10443661;28;20546;-69
2022/11/14 10:31:18;;;;;;;8.95;5.97;;;14.70;70.50;;;;;;10364761;28;20064;-71
2022/11/14 10:36:49;;;;;;;8.95;5.70;;;14.70;70.30;;;;;;10445119;28;20041;-68
2022/11/14 10:41:56;;;;;;;8.50;5.38;;;14.80;70.30;;;;;;10452714;28;20091;-67
2022/11/14 10:47:04;;;;;;;10.35;5.82;;;14.80;70.20;;;;;;10451142;28;20044;-69
2022/11/14 10:52:21;;;;;;;9.07;5.33;;;14.80;70.30;;;;;;10434640;28;20025;-68
2022/11/14 10:57:22;;;;;;;8.45;5.28;;;14.90;70.10;;;;;;10450528;28;20033;-69
2022/11/14 11:02:23;;;;;;;8.57;5.75;;;14.90;70.00;;;;;;10466870;28;20021;-69
2022/11/14 11:12:52;;;;;;;7.95;5.18;;;15.00;69.90;;;;;;10448286;28;20041;-68
2022/11/14 11:18:05;;;;;;;8.68;5.60;;;15.00;69.80;;;;;;10449689;28;20100;-70
2022/11/14 11:23:21;;;;;;;8.45;5.60;;;15.00;69.90;;;;;;10450816;28;20033;-68
2022/11/14 11:28:22;;;;;;;8.55;4.72;;;15.00;70.00;;;;;;10449354;28;20040;-69
2022/11/14 11:33:30;;;;;;;6.10;4.55;;;15.00;70.10;;;;;;10450474;28;20049;-68
2022/11/14 11:38:32;;;;;;;7.30;4.55;;;15.00;69.90;;;;;;10449000;28;20110;-68
2022/11/14 11:43:53;;;;;;;7.07;5.47;;;15.00;69.80;;;;;;10432675;28;20112;-69
2022/11/14 11:49:09;;;;;;;8.20;5.47;;;15.00;70.00;;;;;;10447810;28;20125;-67
2022/11/14 11:54:19;;;;;;;9.45;5.25;;;14.90;70.10;;;;;;10449989;28;20024;-69
2022/11/14 11:59:36;;;;;;;6.22;5.63;;;14.80;70.20;;;;;;10448200;28;20501;-67
2022/11/14 12:04:37;;;;;;;7.40;5.32;;;14.80;70.40;;;;;;10447941;28;20017;-68
2022/11/14 12:09:40;;;;;;;7.43;5.85;;;14.70;70.60;;;;;;10447819;28;20031;-69
2022/11/14 12:15:26;;;;;;;7.55;6.28;;;14.70;70.70;;;;;;10447539;28;20021;-68
2022/11/14 12:20:59;;;;;;;7.72;5.90;;;14.70;71.00;;;;;;10447408;28;20017;-68
2022/11/14 12:26:08;;;;;;;7.88;7.13;;;14.70;70.90;;;;;;10446733;28;20028;-67
2022/11/14 12:31:15;;;;;;;9.27;6.63;;;14.60;70.80;;;;;;10446987;28;20017;-67
2022/11/14 12:36:16;;;;;;;9.80;8.07;;;14.60;70.80;;;;;;10446178;28;20136;-65
2022/11/14 12:41:31;;;;;;;12.07;9.13;;;14.60;70.80;;;;;;10446243;28;20033;-65
2022/11/14 12:47:04;;;;;;;10.38;8.93;;;14.80;72.90;;;;;;10446336;28;20013;-68
2022/11/14 12:52:39;;;;;;;10.95;9.68;;;15.00;73.00;;;;;;10446082;28;20377;-65
2022/11/14 12:58:05;;;;;;;9.90;8.90;;;15.10;72.90;;;;;;10447050;28;20033;-66
2022/11/14 13:03:33;;;;;;;10.07;8.57;;;15.10;72.60;;;;;;10444487;28;20033;-65
2022/11/14 13:09:17;;;;;;;9.57;8.57;;;15.10;72.90;;;;;;10446347;28;20082;-65
2022/11/14 13:25:10;;;;;;;10.80;9.38;;;15.30;73.40;;;;;;10445444;28;20021;-66
2022/11/14 13:30:11;;;;;;;10.88;9.75;;;15.30;73.30;;;;;;10446420;28;20411;-69
2022/11/14 13:35:44;;;;;;;17.40;9.90;;;15.30;73.50;;;;;;10445065;28;20049;-65
2022/11/14 13:41:18;;;;;;;20.08;10.02;;;15.40;73.30;;;;;;10446121;28;20033;-65
2022/11/14 13:47:05;;;;;;;22.50;10.95;;;15.30;73.60;;;;;;10428683;28;20113;-63
2022/11/14 13:52:05;;;;;;;20.50;10.55;;;15.00;74.00;;;;;;10442327;28;20105;-63
2022/11/14 13:57:20;;;;;;;16.00;11.85;;;14.90;73.70;;;;;;10442016;28;20420;-63
2022/11/14 14:02:53;;;;;;;15.70;10.18;;;14.80;73.70;;;;;;10442904;28;20118;-63
2022/11/14 14:08:19;;;;;;;16.27;9.60;;;14.70;73.70;;;;;;10443108;28;20468;-63
2022/11/14 14:13:46;;;;;;;14.98;11.27;;;14.70;73.80;;;;;;10447831;28;20037;-63
2022/11/14 14:19:01;;;;;;;15.05;8.85;;;14.60;73.70;;;;;;10452479;28;20124;-63
2022/11/14 14:24:44;;;;;;;15.93;10.13;;;14.60;73.60;;;;;;10452177;28;20379;-63
2022/11/14 14:30:11;;;;;;;13.40;9.13;;;14.60;73.60;;;;;;10452014;28;20009;-61
2022/11/14 14:35:23;;;;;;;14.57;9.88;;;14.60;73.50;;;;;;10451396;28;20714;-63
2022/11/14 14:40:35;;;;;;;13.85;9.05;;;14.50;73.40;;;;;;10451428;28;20613;-63
2022/11/14 14:45:47;;;;;;;12.15;8.95;;;14.50;73.30;;;;;;10450987;28;20128;-63
2022/11/14 14:50:56;;;;;;;14.38;8.60;;;14.50;73.30;;;;;;10451004;28;20104;-62
2022/11/14 14:55:58;;;;;;;14.87;9.70;;;14.50;73.10;;;;;;10451971;28;20013;-66
2022/11/14 15:01:20;;;;;;;20.13;10.00;;;14.50;73.40;;;;;;10449813;28;20161;-65
2022/11/14 15:06:33;;;;;;;21.08;9.23;;;14.50;73.30;;;;;;10447900;28;20098;-64
2022/11/14 15:11:38;;;;;;;19.75;9.25;;;14.50;73.40;;;;;;10429377;28;20013;-65
2022/11/14 15:16:39;;;;;;;21.15;8.88;;;14.50;73.60;;;;;;10449575;28;20143;-64
2022/11/14 15:21:41;;;;;;;20.98;9.50;;;14.50;73.50;;;;;;10450170;28;20025;-65
2022/11/14 15:26:44;;;;;;;18.40;9.57;;;14.60;73.80;;;;;;10449251;28;20044;-64
2022/11/14 15:31:57;;;;;;;18.77;9.88;;;14.50;74.00;;;;;;10448327;28;20048;-64
2022/11/14 15:37:19;;;;;;;21.77;9.25;;;14.50;74.10;;;;;;10445813;28;20392;-64
2022/11/14 15:42:22;;;;;;;25.35;10.05;;;14.60;74.10;;;;;;10447951;28;20443;-64
2022/11/14 15:47:39;;;;;;;13.75;8.40;;;14.60;74.30;;;;;;10449574;28;20552;-64
2022/11/14 15:53:03;;;;;;;16.92;8.77;;;14.60;75.00;;;;;;10445789;28;20013;-64
2022/11/14 15:58:11;;;;;;;19.20;9.02;;;14.60;74.50;;;;;;10463953;28;20025;-65
2022/11/14 16:03:17;;;;;;;13.35;8.07;;;14.60;74.30;;;;;;10444453;28;20068;-65
2022/11/14 16:08:18;;;;;;;16.65;8.02;;;14.60;74.40;;;;;;10447111;28;20021;-65
2022/11/14 16:13:19;;;;;;;20.63;7.80;;;14.60;74.40;;;;;;10447654;28;20148;-65
2022/11/14 16:18:19;;;;;;;15.00;8.88;;;14.60;74.40;;;;;;10446439;28;20040;-64
2022/11/14 16:23:20;;;;;;;18.75;8.50;;;14.60;74.60;;;;;;10442055;28;20132;-65
2022/11/14 16:28:21;;;;;;;13.20;7.00;;;14.60;74.60;;;;;;10447293;28;20120;-65
2022/11/14 16:33:21;;;;;;;14.20;7.63;;;14.60;74.70;;;;;;10444982;28;20443;-65
2022/11/14 16:38:22;;;;;;;17.75;8.10;;;14.60;74.60;;;;;;10443882;28;20106;-65
2022/11/14 16:43:23;;;;;;;11.43;7.15;;;14.70;74.70;;;;;;10443258;28;20043;-62
2022/11/14 16:48:23;;;;;;;22.73;7.43;;;14.60;74.70;;;;;;10445445;28;20064;-65
2022/11/14 16:53:24;;;;;;;21.20;8.63;;;14.70;74.70;;;;;;10429681;28;20020;-64
2022/11/14 16:58:24;;;;;;;15.48;9.40;;;14.70;73.90;;;;;;10429674;28;20063;-63
2022/11/14 17:03:25;;;;;;;15.93;8.80;;;14.70;73.10;;;;;;10426164;28;20611;-63
2022/11/14 17:08:26;;;;;;;15.32;9.25;;;14.60;72.60;;;;;;10439126;28;20097;-64
2022/11/14 17:13:29;;;;;;;15.90;10.73;;;14.60;72.40;;;;;;10446259;28;20100;-62
2022/11/14 17:18:30;;;;;;;22.33;10.20;;;14.60;72.40;;;;;;10444307;28;20025;-59
2022/11/14 17:23:30;;;;;;;16.27;9.18;;;14.80;72.50;;;;;;10446384;28;20033;-59
2022/11/14 17:28:33;;;;;;;20.02;9.07;;;14.90;72.50;;;;;;10445331;28;20367;-58
2022/11/14 17:33:34;;;;;;;24.67;8.35;;;14.90;72.80;;;;;;10443704;28;20055;-58
2022/11/14 17:38:36;;;;;;;25.88;9.95;;;14.80;73.40;;;;;;10444222;28;20037;-55
2022/11/14 17:43:37;;;;;;;19.75;9.15;;;15.00;74.30;;;;;;10445021;28;20021;-59
2022/11/14 17:48:38;;;;;;;26.15;9.20;;;15.10;74.20;;;;;;10451784;28;20017;-56
2022/11/14 17:53:39;;;;;;;29.67;10.90;;;15.10;74.70;;;;;;10444808;28;20028;-56
2022/11/14 17:58:40;;;;;;;10.35;7.07;;;15.10;74.20;;;;;;10453832;28;20017;-56
2022/11/14 18:03:41;;;;;;;12.00;7.63;;;14.90;73.10;;;;;;10447946;28;20044;-55
2022/11/14 18:08:42;;;;;;;14.75;8.07;;;14.80;73.60;;;;;;10452978;28;20017;-56
2022/11/14 18:13:43;;;;;;;17.30;10.30;;;14.80;73.70;;;;;;10452637;28;20732;-56
2022/11/14 18:18:44;;;;;;;13.38;8.23;;;14.70;73.80;;;;;;10469212;28;20033;-57
2022/11/14 18:23:57;;;;;;;14.38;8.30;;;14.70;73.70;;;;;;10451535;28;20040;-57
2022/11/14 18:29:03;;;;;;;18.27;8.43;;;14.80;73.50;;;;;;10450151;28;20017;-53
2022/11/14 18:34:04;;;;;;;14.32;8.70;;;14.80;73.70;;;;;;10434550;28;20033;-58
2022/11/14 18:39:05;;;;;;;16.23;7.43;;;14.90;73.10;;;;;;10451683;28;20040;-57
2022/11/14 18:44:05;;;;;;;10.73;6.57;;;14.80;73.50;;;;;;10451190;28;20526;-57
2022/11/14 18:49:06;;;;;;;11.07;7.20;;;14.80;73.70;;;;;;10451556;28;20060;-57
2022/11/14 18:54:12;;;;;;;16.15;8.10;;;14.80;73.80;;;;;;10452159;28;20605;-56
2022/11/14 18:59:13;;;;;;;17.00;7.80;;;14.80;73.80;;;;;;10451689;28;20110;-57
2022/11/14 19:04:16;;;;;;;17.60;7.28;;;14.80;73.70;;;;;;10450393;28;20111;-58
2022/11/14 19:09:21;;;;;;;12.55;7.32;;;14.80;73.60;;;;;;10450367;28;20045;-57
2022/11/14 19:14:22;;;;;;;8.52;7.05;;;14.70;73.70;;;;;;10451449;28;20017;-57
2022/11/14 19:19:23;;;;;;;14.05;6.95;;;14.70;73.70;;;;;;10450220;28;20542;-57
2022/11/14 19:24:23;;;;;;;13.35;6.95;;;14.70;73.70;;;;;;10445240;28;20102;-57
2022/11/14 19:29:24;;;;;;;10.75;6.30;;;14.60;73.60;;;;;;10450012;28;20083;-57
2022/11/14 19:34:25;;;;;;;13.73;6.47;;;14.60;73.50;;;;;;10430024;28;20566;-56
2022/11/14 19:39:26;;;;;;;11.82;6.68;;;14.70;73.50;;;;;;10449042;28;20029;-57
2022/11/14 19:44:26;;;;;;;9.88;5.90;;;14.60;73.30;;;;;;10432013;28;20027;-56
2022/11/14 19:49:27;;;;;;;10.32;6.93;;;14.70;73.80;;;;;;10447213;28;20025;-60
2022/11/14 19:54:28;;;;;;;11.75;6.10;;;14.70;73.80;;;;;;10447429;28;20151;-62
2022/11/14 19:59:28;;;;;;;10.40;6.18;;;14.60;73.90;;;;;;10447570;28;20123;-62
2022/11/14 20:04:29;;;;;;;10.15;6.13;;;14.70;74.20;;;;;;10448368;28;20096;-62
2022/11/14 20:09:30;;;;;;;9.00;6.22;;;14.60;74.20;;;;;;10447817;28;20456;-62
2022/11/14 20:14:30;;;;;;;9.75;5.72;;;14.60;74.20;;;;;;10446468;28;20024;-62
2022/11/14 20:19:31;;;;;;;8.18;6.15;;;14.60;74.30;;;;;;10446059;28;20110;-63
2022/11/14 20:24:31;;;;;;;9.02;6.55;;;14.60;74.30;;;;;;10446150;28;20467;-63
2022/11/14 20:29:32;;;;;;;12.15;5.85;;;14.70;74.40;;;;;;10448221;28;20055;-62
2022/11/14 20:34:33;;;;;;;10.68;6.28;;;14.80;74.20;;;;;;10446361;28;20160;-66
2022/11/14 20:39:33;;;;;;;8.05;5.65;;;14.70;74.00;;;;;;10447946;28;20140;-67
2022/11/14 20:44:34;;;;;;;11.40;6.60;;;14.60;74.10;;;;;;10444659;28;20092;-66
2022/11/14 20:49:35;;;;;;;7.68;5.63;;;14.60;74.20;;;;;;10479078;28;20060;-68
2022/11/14 20:54:35;;;;;;;9.88;6.28;;;14.60;74.10;;;;;;10447014;28;20691;-67
2022/11/14 20:59:36;;;;;;;8.50;6.53;;;14.60;74.20;;;;;;10446122;28;20116;-68
2022/11/14 21:04:37;;;;;;;8.30;6.97;;;14.50;74.10;;;;;;10428884;28;20116;-68
2022/11/14 21:09:37;;;;;;;8.40;6.68;;;14.50;74.10;;;;;;10437859;28;20481;-67
2022/11/14 21:14:38;;;;;;;16.67;6.78;;;14.50;74.10;;;;;;10443245;28;20119;-66
2022/11/14 21:19:39;;;;;;;10.05;6.20;;;14.40;74.10;;;;;;10442888;28;20060;-64
2022/11/14 21:24:39;;;;;;;8.73;6.55;;;14.40;74.10;;;;;;10443462;28;20064;-66
2022/11/14 21:29:40;;;;;;;8.93;6.68;;;14.40;74.10;;;;;;10443041;28;20163;-67
2022/11/14 21:34:41;;;;;;;9.68;6.57;;;14.40;74.10;;;;;;10443534;28;20037;-67
2022/11/14 21:39:41;;;;;;;7.80;6.13;;;14.40;74.10;;;;;;10444937;28;20125;-67
2022/11/14 21:44:42;;;;;;;8.73;6.10;;;14.40;74.10;;;;;;10444369;28;20118;-67
2022/11/14 21:49:42;;;;;;;12.10;6.70;;;14.40;74.10;;;;;;10428265;28;20459;-67
2022/11/14 21:54:43;;;;;;;9.07;5.90;;;14.40;74.10;;;;;;10444167;28;20068;-67
2022/11/14 21:59:44;;;;;;;10.75;7.25;;;14.30;74.00;;;;;;10444620;28;20118;-68
2022/11/14 22:04:45;;;;;;;8.48;6.50;;;14.30;74.00;;;;;;10426147;28;20120;-65
2022/11/14 22:09:45;;;;;;;7.78;6.07;;;14.30;74.00;;;;;;10437950;28;20642;-68
2022/11/14 22:14:46;;;;;;;8.38;6.13;;;14.30;74.00;;;;;;10443912;28;20100;-68
2022/11/14 22:19:46;;;;;;;6.60;5.85;;;14.30;74.00;;;;;;10427364;28;20076;-68
2022/11/14 22:24:47;;;;;;;7.82;6.03;;;14.30;74.00;;;;;;10443762;28;20055;-65
2022/11/14 22:29:48;;;;;;;7.70;5.43;;;14.20;74.00;;;;;;10427246;28;20120;-67
2022/11/14 22:34:48;;;;;;;7.13;6.07;;;14.30;74.00;;;;;;10448439;28;20636;-67
2022/11/14 22:39:49;;;;;;;6.35;5.18;;;14.30;74.00;;;;;;10451144;28;20033;-67
2022/11/14 22:44:50;;;;;;;7.65;5.45;;;14.30;74.00;;;;;;10434504;28;20112;-68
2022/11/14 22:49:50;;;;;;;8.52;6.15;;;14.20;74.00;;;;;;10452185;28;20021;-69
2022/11/14 22:54:51;;;;;;;6.57;5.28;;;14.20;73.90;;;;;;10452010;28;20472;-68
2022/11/14 22:59:52;;;;;;;9.38;5.85;;;14.20;74.00;;;;;;10450690;28;20064;-69
2022/11/14 23:04:52;;;;;;;9.77;6.22;;;14.20;74.00;;;;;;10450197;28;20092;-68
2022/11/14 23:09:53;;;;;;;7.72;5.88;;;14.20;74.00;;;;;;10444891;28;20056;-67
2022/11/14 23:14:53;;;;;;;6.93;5.68;;;14.20;74.00;;;;;;10449507;28;20112;-67
2022/11/14 23:19:55;;;;;;;7.10;5.45;;;14.20;74.00;;;;;;10450031;28;20057;-69
2022/11/14 23:24:55;;;;;;;8.18;6.10;;;14.20;74.00;;;;;;10449696;28;20574;-68
2022/11/14 23:29:56;;;;;;;7.40;5.07;;;14.20;74.00;;;;;;10449544;28;20021;-67
2022/11/14 23:34:57;;;;;;;6.65;5.47;;;14.20;74.00;;;;;;10449046;28;21038;-70
2022/11/14 23:39:57;;;;;;;6.30;4.82;;;14.20;74.00;;;;;;10449086;28;20065;-70
2022/11/14 23:44:58;;;;;;;6.65;5.75;;;14.10;74.00;;;;;;10449156;28;20021;-66
2022/11/14 23:49:59;;;;;;;7.43;5.68;;;14.10;74.00;;;;;;10448968;28;20025;-70
2022/11/14 23:55:01;;;;;;;8.15;5.88;;;14.20;74.00;;;;;;10448377;28;20107;-69
